CYRJ

Roberval Airport

Roberval, Quebec, Canada
METAR CYRJ 172300Z 31018G28KT 25SM SCT045 SCT220 21/12 A2972 RMK SC3CI1 PRESRR SLP066 DENSITY ALT 1600FT
Observed Flight Rules
Jul-17 @ 23:00 UTC (19 minutes ago) Visual Flight Rules
Wind Visibility Clouds
310° at 18 knots
 Gusting to 28 knots
25 miles
  • Scattered at 4,500' AGL
  • Scattered at 22,000' AGL
Temperatures Readings
Current 21°C / 70°F
Dewpoint 12°C / 54°F
Humidity 57%
Altimeter 29.72" Hg
Pressure 1006.6 hPa
Elevation 179
METAR CYRJ 172300Z 31018G28KT 25SM SCT045 SCT220 21/12 A2972 RMK SC3CI1 PRESRR SLP066 DENSITY ALT 1600FT
Observed Flight Rules
Jul-17 @ 23:00 UTC
(19 minutes ago)
VFR
Wind Visibility
310° at 18 knots
 Gusting to 28 knots
25 miles
Clouds
  • Scattered at 4,500' AGL
  • Scattered at 22,000' AGL
Temperature Dewpoint
21°C / 70°F 12°C / 54°F
Humidity Altimeter Pressure
57% 29.72" Hg 1006.6 hPa